sensor_id;sensor_type;location;lat;lon;timestamp;pressure;altitude;pressure_sealevel;temperature;humidity
10606;BME280;5350;42.698;23.148;2023-02-14T00:00:30;95022.03;;;1.47;91.58
10606;BME280;5350;42.698;23.148;2023-02-14T00:02:57;95021.44;;;1.52;91.45
10606;BME280;5350;42.698;23.148;2023-02-14T00:05:24;95026.63;;;1.45;91.85
10606;BME280;5350;42.698;23.148;2023-02-14T00:07:50;95032.19;;;1.36;93.00
10606;BME280;5350;42.698;23.148;2023-02-14T00:10:17;95030.19;;;1.44;93.57
10606;BME280;5350;42.698;23.148;2023-02-14T00:12:44;95029.41;;;1.50;93.59
10606;BME280;5350;42.698;23.148;2023-02-14T00:15:12;95021.81;;;1.55;93.27
10606;BME280;5350;42.698;23.148;2023-02-14T00:17:47;95036.19;;;1.51;93.52
10606;BME280;5350;42.698;23.148;2023-02-14T00:20:13;95035.22;;;1.46;94.92
10606;BME280;5350;42.698;23.148;2023-02-14T00:22:40;95036.00;;;1.53;95.19
10606;BME280;5350;42.698;23.148;2023-02-14T00:25:07;95037.19;;;1.57;94.86
10606;BME280;5350;42.698;23.148;2023-02-14T00:27:34;95034.19;;;1.60;95.02
10606;BME280;5350;42.698;23.148;2023-02-14T00:30:02;95037.41;;;1.62;94.74
10606;BME280;5350;42.698;23.148;2023-02-14T00:32:32;95031.03;;;1.65;94.77
10606;BME280;5350;42.698;23.148;2023-02-14T00:34:59;95031.59;;;1.60;94.94
10606;BME280;5350;42.698;23.148;2023-02-14T00:37:26;95043.38;;;1.69;94.56
10606;BME280;5350;42.698;23.148;2023-02-14T00:39:52;95037.19;;;1.70;94.57
10606;BME280;5350;42.698;23.148;2023-02-14T00:42:19;95042.75;;;1.74;94.34
10606;BME280;5350;42.698;23.148;2023-02-14T00:44:46;95028.41;;;1.84;94.43
10606;BME280;5350;42.698;23.148;2023-02-14T00:47:13;95037.16;;;1.96;93.17
10606;BME280;5350;42.698;23.148;2023-02-14T00:49:41;95021.03;;;1.81;93.25
10606;BME280;5350;42.698;23.148;2023-02-14T00:52:07;95031.38;;;1.94;93.33
10606;BME280;5350;42.698;23.148;2023-02-14T00:54:34;95023.03;;;1.79;94.33
10606;BME280;5350;42.698;23.148;2023-02-14T00:57:01;95014.00;;;1.88;94.00
10606;BME280;5350;42.698;23.148;2023-02-14T00:59:27;95008.44;;;1.85;94.18
10606;BME280;5350;42.698;23.148;2023-02-14T01:01:54;95008.22;;;1.86;93.65
10606;BME280;5350;42.698;23.148;2023-02-14T01:04:21;95011.19;;;2.03;93.62
10606;BME280;5350;42.698;23.148;2023-02-14T01:06:49;95006.81;;;1.90;93.81
10606;BME280;5350;42.698;23.148;2023-02-14T01:09:15;95020.19;;;2.00;93.40
10606;BME280;5350;42.698;23.148;2023-02-14T01:11:42;95015.19;;;2.12;93.20
10606;BME280;5350;42.698;23.148;2023-02-14T01:14:09;95003.16;;;2.24;92.36
10606;BME280;5350;42.698;23.148;2023-02-14T01:16:37;95005.38;;;2.27;91.02
10606;BME280;5350;42.698;23.148;2023-02-14T01:19:04;95003.53;;;2.34;90.59
10606;BME280;5350;42.698;23.148;2023-02-14T01:21:32;94998.19;;;2.22;90.78
10606;BME280;5350;42.698;23.148;2023-02-14T01:24:02;94994.53;;;2.36;90.14
10606;BME280;5350;42.698;23.148;2023-02-14T01:26:29;94992.97;;;2.29;90.85
10606;BME280;5350;42.698;23.148;2023-02-14T01:28:56;94986.59;;;2.25;90.56
10606;BME280;5350;42.698;23.148;2023-02-14T01:31:24;94992.19;;;2.15;91.49
10606;BME280;5350;42.698;23.148;2023-02-14T01:33:52;94992.63;;;2.19;91.27
10606;BME280;5350;42.698;23.148;2023-02-14T01:36:21;94993.22;;;2.21;90.99
10606;BME280;5350;42.698;23.148;2023-02-14T01:38:50;94990.19;;;2.24;90.68
10606;BME280;5350;42.698;23.148;2023-02-14T01:41:20;94985.00;;;2.17;91.02
10606;BME280;5350;42.698;23.148;2023-02-14T01:43:55;94983.44;;;2.10;91.31
10606;BME280;5350;42.698;23.148;2023-02-14T01:46:23;94976.88;;;1.94;91.95
10606;BME280;5350;42.698;23.148;2023-02-14T01:48:51;94970.50;;;1.90;92.42
10606;BME280;5350;42.698;23.148;2023-02-14T01:51:19;94970.50;;;1.90;92.18
10606;BME280;5350;42.698;23.148;2023-02-14T01:53:46;94963.72;;;2.02;91.82
10606;BME280;5350;42.698;23.148;2023-02-14T01:56:20;94970.69;;;2.08;91.44
10606;BME280;5350;42.698;23.148;2023-02-14T01:58:51;94965.13;;;1.92;92.00
10606;BME280;5350;42.698;23.148;2023-02-14T02:01:19;94962.69;;;2.03;91.76
10606;BME280;5350;42.698;23.148;2023-02-14T02:03:48;94966.69;;;1.99;92.21
10606;BME280;5350;42.698;23.148;2023-02-14T02:06:20;94964.09;;;1.99;91.70
10606;BME280;5350;42.698;23.148;2023-02-14T02:08:52;94946.31;;;2.03;91.65
10606;BME280;5350;42.698;23.148;2023-02-14T02:11:22;94954.50;;;2.06;91.12
10606;BME280;5350;42.698;23.148;2023-02-14T02:13:49;94948.66;;;2.17;91.16
10606;BME280;5350;42.698;23.148;2023-02-14T02:16:26;94947.47;;;2.20;90.89
10606;BME280;5350;42.698;23.148;2023-02-14T02:19:08;94941.09;;;2.16;90.30
10606;BME280;5350;42.698;23.148;2023-02-14T02:22:02;94953.84;;;2.17;90.61
10606;BME280;5350;42.698;23.148;2023-02-14T02:24:37;94941.88;;;2.23;90.23
10606;BME280;5350;42.698;23.148;2023-02-14T02:27:23;94945.38;;;2.41;88.83
10606;BME280;5350;42.698;23.148;2023-02-14T02:33:19;94933.88;;;2.24;88.99
10606;BME280;5350;42.698;23.148;2023-02-14T02:38:56;94937.50;;;2.17;90.24
10606;BME280;5350;42.698;23.148;2023-02-14T02:41:32;94922.78;;;2.04;90.49
10606;BME280;5350;42.698;23.148;2023-02-14T02:44:12;94912.00;;;1.94;91.42
10606;BME280;5350;42.698;23.148;2023-02-14T02:46:46;94922.59;;;1.86;92.21
10606;BME280;5350;42.698;23.148;2023-02-14T02:49:22;94909.25;;;1.83;92.65
10606;BME280;5350;42.698;23.148;2023-02-14T02:52:14;94925.78;;;1.88;92.23
10606;BME280;5350;42.698;23.148;2023-02-14T02:55:06;94939.19;;;1.85;92.20
10606;BME280;5350;42.698;23.148;2023-02-14T02:57:39;94935.59;;;1.80;92.73
10606;BME280;5350;42.698;23.148;2023-02-14T03:00:07;94933.03;;;1.73;92.92
10606;BME280;5350;42.698;23.148;2023-02-14T03:02:37;94926.06;;;1.60;93.53
10606;BME280;5350;42.698;23.148;2023-02-14T03:05:20;94924.66;;;1.65;93.71
10606;BME280;5350;42.698;23.148;2023-02-14T03:07:48;94925.66;;;1.70;93.18
10606;BME280;5350;42.698;23.148;2023-02-14T03:10:17;94931.44;;;1.72;92.92
10606;BME280;5350;42.698;23.148;2023-02-14T03:15:53;94923.22;;;1.82;92.44
10606;BME280;5350;42.698;23.148;2023-02-14T03:18:51;94914.84;;;1.80;92.22
10606;BME280;5350;42.698;23.148;2023-02-14T03:21:45;94906.44;;;1.84;92.22
10606;BME280;5350;42.698;23.148;2023-02-14T03:24:18;94903.09;;;1.77;93.10
10606;BME280;5350;42.698;23.148;2023-02-14T03:26:56;94901.47;;;1.83;92.68
10606;BME280;5350;42.698;23.148;2023-02-14T03:29:39;94892.28;;;1.80;92.24
10606;BME280;5350;42.698;23.148;2023-02-14T03:32:13;94886.72;;;1.83;92.42
10606;BME280;5350;42.698;23.148;2023-02-14T03:34:46;94894.09;;;1.80;92.60
10606;BME280;5350;42.698;23.148;2023-02-14T03:37:16;94900.28;;;1.85;92.23
10606;BME280;5350;42.698;23.148;2023-02-14T03:39:53;94890.72;;;1.73;93.16
10606;BME280;5350;42.698;23.148;2023-02-14T03:42:26;94891.94;;;1.70;93.86
10606;BME280;5350;42.698;23.148;2023-02-14T03:44:56;94906.09;;;1.54;94.51
10606;BME280;5350;42.698;23.148;2023-02-14T03:47:27;94896.75;;;1.53;94.21
10606;BME280;5350;42.698;23.148;2023-02-14T03:49:59;94904.75;;;1.52;94.68
10606;BME280;5350;42.698;23.148;2023-02-14T03:52:28;94901.31;;;1.65;93.78
10606;BME280;5350;42.698;23.148;2023-02-14T03:54:59;94894.53;;;1.57;93.59
10606;BME280;5350;42.698;23.148;2023-02-14T03:57:31;94895.56;;;1.56;93.97
10606;BME280;5350;42.698;23.148;2023-02-14T04:00:02;94885.78;;;1.45;94.44
10606;BME280;5350;42.698;23.148;2023-02-14T04:02:33;94873.44;;;1.40;94.72
10606;BME280;5350;42.698;23.148;2023-02-14T04:05:05;94871.84;;;1.46;93.78
10606;BME280;5350;42.698;23.148;2023-02-14T04:07:43;94875.22;;;1.46;94.22
10606;BME280;5350;42.698;23.148;2023-02-14T04:10:11;94877.00;;;1.52;93.90
10606;BME280;5350;42.698;23.148;2023-02-14T04:12:38;94883.59;;;1.42;93.63
10606;BME280;5350;42.698;23.148;2023-02-14T04:15:05;94878.25;;;1.30;94.35
10606;BME280;5350;42.698;23.148;2023-02-14T04:17:32;94875.03;;;1.48;93.28
10606;BME280;5350;42.698;23.148;2023-02-14T04:20:16;94884.22;;;1.37;93.75
10606;BME280;5350;42.698;23.148;2023-02-14T04:22:43;94885.00;;;1.38;93.47
10606;BME280;5350;42.698;23.148;2023-02-14T04:25:12;94873.84;;;1.31;93.96
10606;BME280;5350;42.698;23.148;2023-02-14T04:27:38;94875.25;;;1.33;93.86
10606;BME280;5350;42.698;23.148;2023-02-14T04:30:06;94871.66;;;1.28;94.01
10606;BME280;5350;42.698;23.148;2023-02-14T04:32:33;94866.28;;;1.23;94.50
10606;BME280;5350;42.698;23.148;2023-02-14T04:35:00;94874.47;;;1.20;94.62
10606;BME280;5350;42.698;23.148;2023-02-14T04:37:27;94868.69;;;1.31;94.21
10606;BME280;5350;42.698;23.148;2023-02-14T04:39:53;94888.00;;;1.41;93.26
10606;BME280;5350;42.698;23.148;2023-02-14T04:42:21;94870.66;;;1.29;93.88
10606;BME280;5350;42.698;23.148;2023-02-14T04:44:48;94864.09;;;1.20;93.69
10606;BME280;5350;42.698;23.148;2023-02-14T04:47:15;94837.19;;;1.21;93.53
10606;BME280;5350;42.698;23.148;2023-02-14T04:49:42;94853.50;;;1.21;94.34
10606;BME280;5350;42.698;23.148;2023-02-14T04:52:08;94846.16;;;1.25;93.75
10606;BME280;5350;42.698;23.148;2023-02-14T04:54:44;94847.34;;;1.16;94.43
10606;BME280;5350;42.698;23.148;2023-02-14T04:57:11;94839.56;;;1.22;94.59
10606;BME280;5350;42.698;23.148;2023-02-14T04:59:39;94846.16;;;1.18;94.20
10606;BME280;5350;42.698;23.148;2023-02-14T05:02:15;94846.53;;;1.22;94.17
10606;BME280;5350;42.698;23.148;2023-02-14T05:04:42;94851.13;;;1.26;93.36
10606;BME280;5350;42.698;23.148;2023-02-14T05:07:08;94847.94;;;1.31;93.30
10606;BME280;5350;42.698;23.148;2023-02-14T05:09:35;94845.34;;;1.31;93.29
10606;BME280;5350;42.698;23.148;2023-02-14T05:12:02;94848.31;;;1.34;93.15
10606;BME280;5350;42.698;23.148;2023-02-14T05:14:29;94853.13;;;1.37;93.07
10606;BME280;5350;42.698;23.148;2023-02-14T05:17:04;94851.13;;;1.33;92.99
10606;BME280;5350;42.698;23.148;2023-02-14T05:19:31;94844.31;;;1.45;92.16
10606;BME280;5350;42.698;23.148;2023-02-14T05:21:57;94845.72;;;1.41;92.92
10606;BME280;5350;42.698;23.148;2023-02-14T05:24:24;94856.69;;;1.36;93.11
10606;BME280;5350;42.698;23.148;2023-02-14T05:26:51;94847.50;;;1.34;92.93
10606;BME280;5350;42.698;23.148;2023-02-14T05:29:18;94845.34;;;1.31;94.26
10606;BME280;5350;42.698;23.148;2023-02-14T05:31:44;94866.88;;;1.25;93.63
10606;BME280;5350;42.698;23.148;2023-02-14T05:34:12;94841.50;;;1.40;93.31
10606;BME280;5350;42.698;23.148;2023-02-14T05:36:39;94846.31;;;1.30;94.21
10606;BME280;5350;42.698;23.148;2023-02-14T05:39:06;94841.13;;;1.43;94.07
10606;BME280;5350;42.698;23.148;2023-02-14T05:41:33;94847.47;;;1.53;93.33
10606;BME280;5350;42.698;23.148;2023-02-14T05:43:59;94847.44;;;1.67;92.60
10606;BME280;5350;42.698;23.148;2023-02-14T05:46:26;94845.22;;;1.70;92.16
10606;BME280;5350;42.698;23.148;2023-02-14T05:48:53;94842.06;;;1.68;92.06
10606;BME280;5350;42.698;23.148;2023-02-14T05:51:21;94839.00;;;1.78;91.47
10606;BME280;5350;42.698;23.148;2023-02-14T05:53:47;94840.00;;;1.90;90.73
10606;BME280;5350;42.698;23.148;2023-02-14T05:56:14;94846.19;;;1.76;91.33
10606;BME280;5350;42.698;23.148;2023-02-14T05:58:41;94845.38;;;1.82;91.60
10606;BME280;5350;42.698;23.148;2023-02-14T06:01:08;94841.38;;;1.86;91.31
10606;BME280;5350;42.698;23.148;2023-02-14T06:03:35;94837.41;;;1.83;91.32
10606;BME280;5350;42.698;23.148;2023-02-14T06:06:02;94841.16;;;1.94;91.24
10606;BME280;5350;42.698;23.148;2023-02-14T06:08:30;94851.69;;;1.99;90.56
10606;BME280;5350;42.698;23.148;2023-02-14T06:10:57;94850.50;;;2.01;90.64
10606;BME280;5350;42.698;23.148;2023-02-14T06:13:24;94847.50;;;2.04;90.52
10606;BME280;5350;42.698;23.148;2023-02-14T06:15:50;94860.06;;;2.07;91.29
10606;BME280;5350;42.698;23.148;2023-02-14T06:18:17;94853.50;;;1.98;91.28
10606;BME280;5350;42.698;23.148;2023-02-14T06:20:44;94853.13;;;1.88;91.76
10606;BME280;5350;42.698;23.148;2023-02-14T06:23:11;94853.72;;;1.97;91.82
10606;BME280;5350;42.698;23.148;2023-02-14T06:25:39;94848.69;;;2.08;91.38
10606;BME280;5350;42.698;23.148;2023-02-14T06:28:05;94856.03;;;2.11;90.73
10606;BME280;5350;42.698;23.148;2023-02-14T06:30:32;94865.84;;;2.03;91.99
10606;BME280;5350;42.698;23.148;2023-02-14T06:32:59;94858.06;;;2.03;91.73
10606;BME280;5350;42.698;23.148;2023-02-14T06:35:26;94860.06;;;2.07;91.56
10606;BME280;5350;42.698;23.148;2023-02-14T06:37:52;94862.50;;;2.02;92.35
10606;BME280;5350;42.698;23.148;2023-02-14T06:40:19;94852.50;;;1.99;92.54
10606;BME280;5350;42.698;23.148;2023-02-14T06:42:47;94854.06;;;2.07;92.50
10606;BME280;5350;42.698;23.148;2023-02-14T06:45:14;94867.84;;;2.07;92.48
10606;BME280;5350;42.698;23.148;2023-02-14T06:47:41;94857.63;;;2.19;92.08
10606;BME280;5350;42.698;23.148;2023-02-14T06:50:08;94856.38;;;2.21;92.55
10606;BME280;5350;42.698;23.148;2023-02-14T06:52:37;94853.38;;;2.24;91.89
10606;BME280;5350;42.698;23.148;2023-02-14T06:55:04;94848.75;;;2.33;91.76
10606;BME280;5350;42.698;23.148;2023-02-14T06:57:31;94852.81;;;2.22;92.97
10606;BME280;5350;42.698;23.148;2023-02-14T06:59:59;94847.56;;;2.29;93.33
10606;BME280;5350;42.698;23.148;2023-02-14T07:02:26;94849.97;;;2.30;92.87
10606;BME280;5350;42.698;23.148;2023-02-14T07:04:53;94850.72;;;2.37;92.84
10606;BME280;5350;42.698;23.148;2023-02-14T07:07:19;94847.53;;;2.35;93.04
10606;BME280;5350;42.698;23.148;2023-02-14T07:09:46;94837.94;;;2.36;92.86
10606;BME280;5350;42.698;23.148;2023-02-14T07:12:13;94836.69;;;2.45;92.88
10606;BME280;5350;42.698;23.148;2023-02-14T07:14:39;94837.06;;;2.49;93.10
10606;BME280;5350;42.698;23.148;2023-02-14T07:17:08;94834.06;;;2.52;93.00
10606;BME280;5350;42.698;23.148;2023-02-14T07:19:34;94834.09;;;2.45;93.87
10606;BME280;5350;42.698;23.148;2023-02-14T07:22:01;94845.44;;;2.51;93.85
10606;BME280;5350;42.698;23.148;2023-02-14T07:24:28;94839.81;;;2.54;93.56
10606;BME280;5350;42.698;23.148;2023-02-14T07:26:54;94845.03;;;2.54;93.86
10606;BME280;5350;42.698;23.148;2023-02-14T07:29:21;94835.47;;;2.48;94.56
10606;BME280;5350;42.698;23.148;2023-02-14T07:31:48;94837.50;;;2.46;94.95
10606;BME280;5350;42.698;23.148;2023-02-14T07:34:16;94845.91;;;2.41;95.29
10606;BME280;5350;42.698;23.148;2023-02-14T07:36:43;94840.66;;;2.48;95.33
10606;BME280;5350;42.698;23.148;2023-02-14T07:39:09;94851.78;;;2.55;95.24
10606;BME280;5350;42.698;23.148;2023-02-14T07:41:36;94831.00;;;2.55;95.31
10606;BME280;5350;42.698;23.148;2023-02-14T07:44:03;94844.59;;;2.57;95.47
10606;BME280;5350;42.698;23.148;2023-02-14T07:46:30;94840.78;;;2.59;95.33
10606;BME280;5350;42.698;23.148;2023-02-14T07:48:57;94843.59;;;2.58;95.75
10606;BME280;5350;42.698;23.148;2023-02-14T07:51:25;94849.13;;;2.68;95.31
10606;BME280;5350;42.698;23.148;2023-02-14T07:53:52;94856.53;;;2.64;95.03
10606;BME280;5350;42.698;23.148;2023-02-14T07:56:18;94844.00;;;2.55;96.08
10606;BME280;5350;42.698;23.148;2023-02-14T07:58:45;94858.00;;;2.54;95.89
10606;BME280;5350;42.698;23.148;2023-02-14T08:01:14;94869.56;;;2.58;96.52
10606;BME280;5350;42.698;23.148;2023-02-14T08:03:40;94865.22;;;2.52;97.02
10606;BME280;5350;42.698;23.148;2023-02-14T08:06:09;94864.59;;;2.56;97.36
10606;BME280;5350;42.698;23.148;2023-02-14T08:08:37;94874.59;;;2.53;97.82
10606;BME280;5350;42.698;23.148;2023-02-14T08:11:04;94872.44;;;2.50;98.68
10606;BME280;5350;42.698;23.148;2023-02-14T08:13:30;94872.84;;;2.40;99.30
10606;BME280;5350;42.698;23.148;2023-02-14T08:15:57;94877.91;;;2.35;99.86
10606;BME280;5350;42.698;23.148;2023-02-14T08:18:32;94879.09;;;2.32;100.00
10606;BME280;5350;42.698;23.148;2023-02-14T08:20:59;94880.22;;;2.50;100.00
10606;BME280;5350;42.698;23.148;2023-02-14T08:23:26;94876.22;;;2.47;100.00
10606;BME280;5350;42.698;23.148;2023-02-14T08:25:54;94878.00;;;2.53;99.83
10606;BME280;5350;42.698;23.148;2023-02-14T08:28:22;94885.28;;;2.69;99.50
10606;BME280;5350;42.698;23.148;2023-02-14T08:30:49;94884.47;;;2.75;99.09
10606;BME280;5350;42.698;23.148;2023-02-14T08:33:16;94879.34;;;2.62;99.78
10606;BME280;5350;42.698;23.148;2023-02-14T08:35:43;94876.81;;;2.80;99.28
10606;BME280;5350;42.698;23.148;2023-02-14T08:38:10;94887.94;;;2.94;98.47
10606;BME280;5350;42.698;23.148;2023-02-14T08:40:37;94884.97;;;2.84;99.25
10606;BME280;5350;42.698;23.148;2023-02-14T08:43:06;94876.41;;;2.83;100.00
10606;BME280;5350;42.698;23.148;2023-02-14T08:45:32;94872.19;;;2.82;100.00
10606;BME280;5350;42.698;23.148;2023-02-14T08:48:01;94888.66;;;2.70;100.00
10606;BME280;5350;42.698;23.148;2023-02-14T08:50:28;94880.91;;;2.63;100.00
10606;BME280;5350;42.698;23.148;2023-02-14T08:52:54;94878.97;;;2.59;100.00
10606;BME280;5350;42.698;23.148;2023-02-14T08:55:21;94886.16;;;2.57;100.00
10606;BME280;5350;42.698;23.148;2023-02-14T08:57:48;94889.41;;;2.52;100.00
10606;BME280;5350;42.698;23.148;2023-02-14T09:00:17;94887.38;;;2.54;100.00
10606;BME280;5350;42.698;23.148;2023-02-14T09:02:43;94889.25;;;2.40;100.00
10606;BME280;5350;42.698;23.148;2023-02-14T09:05:10;94878.69;;;2.35;100.00
10606;BME280;5350;42.698;23.148;2023-02-14T09:07:37;94886.50;;;2.35;100.00
10606;BME280;5350;42.698;23.148;2023-02-14T09:10:05;94881.91;;;2.31;100.00
10606;BME280;5350;42.698;23.148;2023-02-14T09:12:32;94882.34;;;2.21;100.00
10606;BME280;5350;42.698;23.148;2023-02-14T09:14:59;94881.38;;;2.16;100.00
10606;BME280;5350;42.698;23.148;2023-02-14T09:17:27;94877.00;;;2.16;100.00
10606;BME280;5350;42.698;23.148;2023-02-14T09:19:54;94875.19;;;2.17;100.00
10606;BME280;5350;42.698;23.148;2023-02-14T09:22:21;94861.19;;;2.24;100.00
10606;BME280;5350;42.698;23.148;2023-02-14T09:24:48;94866.66;;;2.48;100.00
10606;BME280;5350;42.698;23.148;2023-02-14T09:27:15;94872.44;;;2.50;100.00
10606;BME280;5350;42.698;23.148;2023-02-14T09:29:41;94862.59;;;2.58;100.00
10606;BME280;5350;42.698;23.148;2023-02-14T09:32:08;94859.44;;;2.50;100.00
10606;BME280;5350;42.698;23.148;2023-02-14T09:34:36;94874.97;;;2.56;100.00
10606;BME280;5350;42.698;23.148;2023-02-14T09:37:03;94854.50;;;2.41;100.00
10606;BME280;5350;42.698;23.148;2023-02-14T09:39:47;94863.88;;;2.42;100.00
10606;BME280;5350;42.698;23.148;2023-02-14T09:42:32;94869.75;;;2.31;100.00
10606;BME280;5350;42.698;23.148;2023-02-14T09:45:04;94865.84;;;2.47;100.00
10606;BME280;5350;42.698;23.148;2023-02-14T09:47:34;94863.91;;;2.36;100.00
10606;BME280;5350;42.698;23.148;2023-02-14T09:50:06;94858.75;;;2.29;100.00
10606;BME280;5350;42.698;23.148;2023-02-14T09:52:33;94878.50;;;2.30;100.00
10606;BME280;5350;42.698;23.148;2023-02-14T09:55:01;94852.38;;;2.25;100.00
10606;BME280;5350;42.698;23.148;2023-02-14T09:57:36;94854.97;;;2.25;100.00
10606;BME280;5350;42.698;23.148;2023-02-14T10:00:15;94853.56;;;2.29;100.00
10606;BME280;5350;42.698;23.148;2023-02-14T10:02:52;94858.78;;;2.23;100.00
10606;BME280;5350;42.698;23.148;2023-02-14T10:05:26;94849.38;;;2.28;100.00
10606;BME280;5350;42.698;23.148;2023-02-14T10:07:57;94851.13;;;2.34;100.00
10606;BME280;5350;42.698;23.148;2023-02-14T10:10:28;94841.84;;;2.52;100.00
10606;BME280;5350;42.698;23.148;2023-02-14T10:13:03;94841.28;;;2.43;100.00
10606;BME280;5350;42.698;23.148;2023-02-14T10:15:35;94841.41;;;2.55;100.00
10606;BME280;5350;42.698;23.148;2023-02-14T10:18:05;94836.13;;;2.68;98.82
10606;BME280;5350;42.698;23.148;2023-02-14T10:20:40;94833.38;;;2.63;97.17
10606;BME280;5350;42.698;23.148;2023-02-14T10:23:21;94832.63;;;2.56;97.82
10606;BME280;5350;42.698;23.148;2023-02-14T10:25:54;94854.16;;;2.63;95.89
10606;BME280;5350;42.698;23.148;2023-02-14T10:28:30;94836.06;;;2.50;96.19
10606;BME280;5350;42.698;23.148;2023-02-14T10:31:04;94820.63;;;2.55;96.43
10606;BME280;5350;42.698;23.148;2023-02-14T10:33:37;94841.00;;;2.58;96.57
10606;BME280;5350;42.698;23.148;2023-02-14T10:36:12;94847.88;;;2.46;96.19
10606;BME280;5350;42.698;23.148;2023-02-14T10:38:48;94824.72;;;2.44;96.29
10606;BME280;5350;42.698;23.148;2023-02-14T10:41:25;94826.25;;;2.52;95.89
10606;BME280;5350;42.698;23.148;2023-02-14T10:44:03;94833.78;;;2.60;95.48
10606;BME280;5350;42.698;23.148;2023-02-14T10:46:40;94837.50;;;2.70;95.06
10606;BME280;5350;42.698;23.148;2023-02-14T10:49:24;94835.47;;;2.48;95.11
10606;BME280;5350;42.698;23.148;2023-02-14T10:51:56;94830.69;;;2.44;95.18
10606;BME280;5350;42.698;23.148;2023-02-14T10:54:33;94835.88;;;2.44;95.60
10606;BME280;5350;42.698;23.148;2023-02-14T10:57:08;94838.22;;;2.53;95.03
10606;BME280;5350;42.698;23.148;2023-02-14T10:59:45;94832.28;;;2.46;95.37
10606;BME280;5350;42.698;23.148;2023-02-14T11:02:15;94820.31;;;2.44;95.73
10606;BME280;5350;42.698;23.148;2023-02-14T11:04:43;94822.28;;;2.49;95.24
10606;BME280;5350;42.698;23.148;2023-02-14T11:07:14;94818.22;;;2.60;95.22
10606;BME280;5350;42.698;23.148;2023-02-14T11:09:41;94823.00;;;2.63;94.46
10606;BME280;5350;42.698;23.148;2023-02-14T11:12:07;94824.94;;;2.67;94.11
10606;BME280;5350;42.698;23.148;2023-02-14T11:14:35;94820.47;;;2.50;94.11
10606;BME280;5350;42.698;23.148;2023-02-14T11:17:26;94817.06;;;2.49;95.15
10606;BME280;5350;42.698;23.148;2023-02-14T11:19:56;94812.44;;;2.58;95.18
10606;BME280;5350;42.698;23.148;2023-02-14T11:22:29;94827.91;;;2.46;94.86
10606;BME280;5350;42.698;23.148;2023-02-14T11:25:02;94816.94;;;2.44;95.42
10606;BME280;5350;42.698;23.148;2023-02-14T11:27:29;94824.56;;;2.32;95.30
10606;BME280;5350;42.698;23.148;2023-02-14T11:29:57;94806.91;;;2.48;95.05
10606;BME280;5350;42.698;23.148;2023-02-14T11:32:28;94809.72;;;2.46;94.42
10606;BME280;5350;42.698;23.148;2023-02-14T11:34:59;94806.03;;;2.29;94.23
10606;BME280;5350;42.698;23.148;2023-02-14T11:37:29;94806.53;;;2.44;93.40
10606;BME280;5350;42.698;23.148;2023-02-14T11:39:58;94805.03;;;2.55;93.14
10606;BME280;5350;42.698;23.148;2023-02-14T11:42:34;94805.75;;;2.43;92.29
10606;BME280;5350;42.698;23.148;2023-02-14T11:45:04;94807.31;;;2.44;91.73
10606;BME280;5350;42.698;23.148;2023-02-14T11:47:33;94793.44;;;2.57;91.29
10606;BME280;5350;42.698;23.148;2023-02-14T11:50:04;94798.00;;;2.62;90.55
10606;BME280;5350;42.698;23.148;2023-02-14T12:30:35;94754.94;;;2.97;90.75
10606;BME280;5350;42.698;23.148;2023-02-14T12:33:01;94750.75;;;2.96;90.78
10606;BME280;5350;42.698;23.148;2023-02-14T12:35:38;94752.78;;;2.94;91.05
10606;BME280;5350;42.698;23.148;2023-02-14T12:38:10;94743.38;;;2.93;91.50
10606;BME280;5350;42.698;23.148;2023-02-14T12:40:50;94732.97;;;2.93;92.06
10606;BME280;5350;42.698;23.148;2023-02-14T12:43:36;94735.94;;;2.96;92.10
10606;BME280;5350;42.698;23.148;2023-02-14T12:46:49;94729.28;;;3.00;92.08
10606;BME280;5350;42.698;23.148;2023-02-14T12:49:32;94720.84;;;2.87;93.03
10606;BME280;5350;42.698;23.148;2023-02-14T12:52:10;94731.66;;;2.84;93.26
10606;BME280;5350;42.698;23.148;2023-02-14T12:54:48;94730.59;;;2.91;93.27
10606;BME280;5350;42.698;23.148;2023-02-14T12:57:30;94730.81;;;2.90;93.33
10606;BME280;5350;42.698;23.148;2023-02-14T13:00:10;94726.13;;;2.98;93.46
10606;BME280;5350;42.698;23.148;2023-02-14T13:05:53;94733.03;;;2.86;94.76
10606;BME280;5350;42.698;23.148;2023-02-14T13:08:29;94731.06;;;2.82;94.99
10606;BME280;5350;42.698;23.148;2023-02-14T13:11:05;94734.84;;;2.86;95.35
10606;BME280;5350;42.698;23.148;2023-02-14T13:13:45;94719.47;;;2.84;95.56
10606;BME280;5350;42.698;23.148;2023-02-14T13:16:17;94727.25;;;2.84;95.63
10606;BME280;5350;42.698;23.148;2023-02-14T13:18:52;94722.06;;;2.84;95.65
10606;BME280;5350;42.698;23.148;2023-02-14T13:21:25;94721.72;;;2.81;95.87
10606;BME280;5350;42.698;23.148;2023-02-14T13:23:56;94724.13;;;2.76;97.27
10606;BME280;5350;42.698;23.148;2023-02-14T13:26:28;94721.47;;;2.82;97.42
10606;BME280;5350;42.698;23.148;2023-02-14T13:29:01;94720.22;;;2.91;96.52
10606;BME280;5350;42.698;23.148;2023-02-14T13:31:29;94717.25;;;2.88;96.82
10606;BME280;5350;42.698;23.148;2023-02-14T13:34:02;94720.63;;;2.88;97.19
10606;BME280;5350;42.698;23.148;2023-02-14T13:36:32;94718.03;;;2.88;97.30
10606;BME280;5350;42.698;23.148;2023-02-14T13:39:00;94719.91;;;2.81;97.65
10606;BME280;5350;42.698;23.148;2023-02-14T13:41:27;94716.94;;;2.78;97.99
10606;BME280;5350;42.698;23.148;2023-02-14T13:43:55;94711.72;;;2.78;98.32
10606;BME280;5350;42.698;23.148;2023-02-14T13:46:48;94719.91;;;2.81;98.35
10606;BME280;5350;42.698;23.148;2023-02-14T13:49:29;94705.66;;;2.84;97.93
10606;BME280;5350;42.698;23.148;2023-02-14T13:51:58;94700.91;;;2.81;97.86
10606;BME280;5350;42.698;23.148;2023-02-14T13:54:34;94709.34;;;2.76;97.90
10606;BME280;5350;42.698;23.148;2023-02-14T13:57:23;94713.47;;;2.84;97.85
10606;BME280;5350;42.698;23.148;2023-02-14T14:00:22;94712.94;;;3.00;96.94
10606;BME280;5350;42.698;23.148;2023-02-14T14:02:50;94710.72;;;2.79;97.07
10606;BME280;5350;42.698;23.148;2023-02-14T14:05:46;94716.06;;;2.84;96.89
10606;BME280;5350;42.698;23.148;2023-02-14T14:08:42;94716.38;;;2.94;97.06
10606;BME280;5350;42.698;23.148;2023-02-14T14:11:12;94717.59;;;2.91;96.51
10606;BME280;5350;42.698;23.148;2023-02-14T14:14:01;94714.50;;;2.83;97.66
10606;BME280;5350;42.698;23.148;2023-02-14T14:16:30;94716.88;;;2.84;97.58
10606;BME280;5350;42.698;23.148;2023-02-14T14:18:59;94721.19;;;2.90;97.82